createdAt,value
2019-04-28T00:00:24.663Z,10.31
2019-04-28T00:01:24.865Z,10.35
2019-04-28T00:02:25.071Z,10.37
2019-04-28T00:03:25.275Z,10.34
2019-04-28T00:04:25.429Z,10.33
2019-04-28T00:05:25.496Z,10.23
2019-04-28T00:06:25.710Z,10.31
2019-04-28T00:07:25.939Z,10.26
2019-04-28T00:08:26.014Z,10.28
2019-04-28T00:09:26.256Z,10.20
2019-04-28T00:10:26.363Z,10.19
2019-04-28T00:11:26.446Z,10.22
2019-04-28T00:12:26.637Z,10.15
2019-04-28T00:13:26.822Z,10.16
2019-04-28T00:14:27.004Z,10.16
2019-04-28T00:15:27.213Z,10.22
2019-04-28T00:16:27.416Z,10.19
2019-04-28T00:17:27.640Z,10.16
2019-04-28T00:18:27.705Z,10.09
2019-04-28T00:19:27.931Z,10.13
2019-04-28T00:20:28.019Z,10.22
2019-04-28T00:21:28.208Z,10.19
2019-04-28T00:22:28.414Z,10.17
2019-04-28T00:23:28.612Z,10.16
2019-04-28T00:24:28.805Z,10.19
2019-04-28T00:25:29.023Z,10.20
2019-04-28T00:26:30.987Z,10.26
2019-04-28T00:27:29.392Z,10.17
2019-04-28T00:28:31.155Z,10.16
2019-04-28T00:29:38.583Z,10.26
2019-04-28T00:30:31.619Z,10.23
2019-04-28T00:31:31.578Z,10.23
2019-04-28T00:32:34.817Z,10.22
2019-04-28T00:33:34.133Z,10.16
2019-04-28T00:34:34.077Z,10.13
2019-04-28T00:35:35.238Z,10.22
2019-04-28T00:36:35.042Z,10.13
2019-04-28T00:37:35.455Z,10.17
2019-04-28T00:38:34.180Z,10.22
2019-04-28T00:39:31.848Z,10.20
2019-04-28T00:40:31.722Z,10.17
2019-04-28T00:41:31.737Z,10.20
2019-04-28T00:42:31.815Z,10.22
2019-04-28T00:43:32.019Z,10.12
2019-04-28T00:44:32.222Z,10.13
2019-04-28T00:45:32.404Z,10.12
2019-04-28T00:46:32.601Z,10.15
2019-04-28T00:47:32.827Z,10.10
2019-04-28T00:48:33.018Z,10.17
2019-04-28T00:49:33.241Z,10.22
2019-04-28T00:50:33.459Z,10.04
2019-04-28T00:51:33.660Z,10.07
2019-04-28T00:52:33.885Z,10.05
2019-04-28T00:53:33.975Z,9.99
2019-04-28T00:54:34.204Z,10.05
2019-04-28T00:55:34.392Z,10.04
2019-04-28T00:56:34.593Z,10.02
2019-04-28T00:57:34.797Z,10.07
2019-04-28T00:58:34.999Z,10.09
2019-04-28T00:59:35.110Z,10.02
2019-04-28T01:00:35.307Z,10.05
2019-04-28T01:01:35.512Z,10.01
2019-04-28T01:02:35.702Z,10.01
2019-04-28T01:03:35.899Z,10.04
2019-04-28T01:04:36.149Z,10.04
2019-04-28T01:05:36.213Z,10.01
2019-04-28T01:06:36.418Z,9.97
2019-04-28T01:07:36.632Z,9.91
2019-04-28T01:08:36.901Z,10.04
2019-04-28T01:09:37.089Z,9.95
2019-04-28T01:10:37.179Z,9.94
2019-04-28T01:11:37.373Z,9.98
2019-04-28T01:12:37.621Z,10.04
2019-04-28T01:13:37.710Z,9.97
2019-04-28T01:14:37.911Z,10.02
2019-04-28T01:15:39.642Z,10.05
2019-04-28T01:16:40.021Z,10.07
2019-04-28T01:17:39.769Z,10.02
2019-04-28T01:18:40.347Z,10.05
2019-04-28T01:19:39.854Z,10.10
2019-04-28T01:20:39.649Z,9.97
2019-04-28T01:21:41.587Z,9.92
2019-04-28T01:22:40.139Z,9.95
2019-04-28T01:23:40.242Z,9.91
2019-04-28T01:24:39.932Z,10.02
2019-04-28T01:25:40.179Z,9.95
2019-04-28T01:26:41.665Z,10.07
2019-04-28T01:27:40.380Z,9.99
2019-04-28T01:28:40.431Z,10.05
2019-04-28T01:29:40.635Z,9.99
2019-04-28T01:30:40.828Z,9.92
2019-04-28T01:31:41.017Z,9.94
2019-04-28T01:32:41.232Z,9.98
2019-04-28T01:33:41.424Z,10.02
2019-04-28T01:34:41.638Z,9.86
2019-04-28T01:35:41.875Z,9.98
2019-04-28T01:36:41.975Z,9.98
2019-04-28T01:37:42.168Z,9.95
2019-04-28T01:38:42.403Z,10.02
2019-04-28T01:39:42.487Z,10.05
2019-04-28T01:40:42.746Z,9.89
2019-04-28T01:41:42.813Z,9.92
2019-04-28T01:42:43.015Z,9.92
2019-04-28T01:43:43.215Z,9.92
2019-04-28T01:44:43.424Z,9.82
2019-04-28T01:45:43.667Z,9.82
2019-04-28T01:46:43.790Z,9.86
2019-04-28T01:47:43.919Z,9.89
2019-04-28T01:48:44.011Z,9.86
2019-04-28T01:49:44.104Z,9.87
2019-04-28T01:50:44.303Z,9.89
2019-04-28T01:51:44.499Z,9.94
2019-04-28T01:52:44.706Z,9.95
2019-04-28T01:53:44.903Z,9.91
2019-04-28T01:54:45.144Z,9.83
2019-04-28T01:55:45.225Z,9.84
2019-04-28T01:56:45.429Z,9.91
2019-04-28T01:57:45.624Z,9.86
2019-04-28T01:58:45.838Z,9.91
2019-04-28T01:59:46.057Z,9.83
2019-04-28T02:00:46.266Z,9.91
2019-04-28T02:01:46.504Z,9.84
2019-04-28T02:02:46.720Z,9.95
2019-04-28T02:03:46.835Z,9.84
2019-04-28T02:04:46.925Z,9.79
2019-04-28T02:05:47.113Z,9.74
2019-04-28T02:06:47.333Z,9.84
2019-04-28T02:07:47.529Z,9.86
2019-04-28T02:08:51.112Z,9.82
2019-04-28T02:09:49.471Z,9.84
2019-04-28T02:10:50.004Z,9.77
2019-04-28T02:11:49.784Z,9.69
2019-04-28T02:12:50.206Z,9.69
2019-04-28T02:13:49.690Z,9.80
2019-04-28T02:14:49.963Z,9.87
2019-04-28T02:15:50.036Z,9.77
2019-04-28T02:16:50.398Z,9.77
2019-04-28T02:17:51.355Z,9.69
2019-04-28T02:18:49.735Z,9.77
2019-04-28T02:19:51.177Z,9.66
2019-04-28T02:20:51.172Z,9.79
2019-04-28T02:21:49.970Z,9.65
2019-04-28T02:22:50.124Z,9.76
2019-04-28T02:23:51.434Z,9.65
2019-04-28T02:24:50.556Z,9.72
2019-04-28T02:25:50.605Z,9.68
2019-04-28T02:26:52.710Z,9.73
2019-04-28T02:27:51.010Z,9.65
2019-04-28T02:28:51.201Z,9.74
2019-04-28T02:29:51.303Z,9.58
2019-04-28T02:30:53.846Z,9.65
2019-04-28T02:31:51.751Z,9.73
2019-04-28T02:32:52.050Z,9.68
2019-04-28T02:33:53.914Z,9.76
2019-04-28T02:34:52.232Z,9.80
2019-04-28T02:35:52.339Z,9.62
2019-04-28T02:36:53.845Z,9.72
2019-04-28T02:37:52.723Z,9.73
2019-04-28T02:38:52.934Z,9.65
2019-04-28T02:39:53.178Z,9.64
2019-04-28T02:40:53.292Z,9.62
2019-04-28T02:41:53.368Z,9.58
2019-04-28T02:42:53.587Z,9.62
2019-04-28T02:43:53.787Z,9.61
2019-04-28T02:44:54.016Z,9.64
2019-04-28T02:45:54.095Z,9.54
2019-04-28T02:46:54.298Z,9.59
2019-04-28T02:47:54.528Z,9.64
2019-04-28T02:48:54.595Z,9.66
2019-04-28T02:49:54.797Z,9.58
2019-04-28T02:50:54.993Z,9.46
2019-04-28T02:51:55.178Z,9.56
2019-04-28T02:52:55.418Z,9.69
2019-04-28T02:53:55.495Z,9.72
2019-04-28T02:54:55.686Z,9.59
2019-04-28T02:55:55.877Z,9.72
2019-04-28T02:56:56.061Z,9.59
2019-04-28T02:57:56.266Z,9.62
2019-04-28T02:58:56.515Z,9.64
2019-04-28T02:59:56.738Z,9.61
2019-04-28T03:01:06.744Z,9.66
2019-04-28T03:01:56.993Z,9.64
2019-04-28T03:02:57.197Z,9.68
2019-04-28T03:03:57.424Z,9.65
2019-04-28T03:05:00.107Z,9.61
2019-04-28T03:05:57.710Z,9.64
2019-04-28T03:06:57.944Z,9.61
2019-04-28T03:07:58.031Z,9.58
2019-04-28T03:09:00.299Z,9.55
2019-04-28T03:10:03.094Z,9.51
2019-04-28T03:11:00.859Z,9.58
2019-04-28T03:12:01.188Z,9.43
2019-04-28T03:13:01.185Z,9.47
2019-04-28T03:14:01.015Z,9.47
2019-04-28T03:15:00.514Z,9.40
2019-04-28T03:16:01.475Z,9.25
2019-04-28T03:17:00.861Z,9.28
2019-04-28T03:18:01.925Z,9.26
2019-04-28T03:19:01.241Z,9.34
2019-04-28T03:20:00.972Z,9.34
2019-04-28T03:21:01.718Z,9.34
2019-04-28T03:22:01.289Z,9.31
2019-04-28T03:23:01.033Z,9.26
2019-04-28T03:24:01.340Z,9.23
2019-04-28T03:25:01.080Z,9.31
2019-04-28T03:26:01.502Z,9.41
2019-04-28T03:27:03.654Z,9.39
2019-04-28T03:28:01.536Z,9.39
2019-04-28T03:29:01.604Z,9.40
2019-04-28T03:30:01.832Z,9.41
2019-04-28T03:31:06.615Z,9.46
2019-04-28T03:32:22.074Z,9.46
2019-04-28T03:33:10.743Z,9.41
2019-04-28T03:34:04.022Z,9.41
2019-04-28T03:35:03.776Z,9.41
2019-04-28T03:36:07.937Z,9.39
2019-04-28T03:37:02.980Z,9.37
2019-04-28T03:38:03.189Z,9.36
2019-04-28T03:39:03.403Z,9.26
2019-04-28T03:40:03.620Z,9.28
2019-04-28T03:41:03.814Z,9.34
2019-04-28T03:42:03.995Z,9.39
2019-04-28T03:43:04.193Z,9.40
2019-04-28T03:44:04.408Z,9.48
2019-04-28T03:45:04.597Z,9.39
2019-04-28T03:46:04.794Z,9.46
2019-04-28T03:47:04.991Z,9.39
2019-04-28T03:48:05.233Z,9.39
2019-04-28T03:49:05.422Z,9.36
2019-04-28T03:50:05.647Z,9.34
2019-04-28T03:51:05.838Z,9.39
2019-04-28T03:52:05.958Z,9.32
2019-04-28T03:53:06.155Z,9.23
2019-04-28T03:54:06.358Z,9.18
2019-04-28T03:55:06.557Z,9.19
2019-04-28T03:56:11.183Z,9.25
2019-04-28T03:57:11.676Z,9.26
2019-04-28T03:58:10.374Z,9.11
2019-04-28T03:59:10.482Z,9.08
2019-04-28T04:00:10.995Z,9.06
2019-04-28T04:01:10.848Z,9.13
2019-04-28T04:02:11.346Z,9.19
2019-04-28T04:03:10.648Z,9.10
2019-04-28T04:04:11.327Z,9.18
2019-04-28T04:05:10.890Z,9.19
2019-04-28T04:06:10.484Z,9.14
2019-04-28T04:07:10.881Z,9.04
2019-04-28T04:08:10.965Z,9.13
2019-04-28T04:09:11.091Z,9.16
2019-04-28T04:10:11.394Z,9.08
2019-04-28T04:11:10.897Z,9.22
2019-04-28T04:12:11.115Z,9.11
2019-04-28T04:13:10.917Z,9.19
2019-04-28T04:14:11.435Z,9.11
2019-04-28T04:15:11.274Z,9.10
2019-04-28T04:16:10.422Z,9.18
2019-04-28T04:17:11.412Z,9.14
2019-04-28T04:18:11.158Z,9.18
2019-04-28T04:19:10.757Z,9.11
2019-04-28T04:20:11.129Z,9.13
2019-04-28T04:21:11.336Z,9.11
2019-04-28T04:22:11.178Z,9.04
2019-04-28T04:23:11.581Z,9.16
2019-04-28T04:24:11.574Z,9.14
2019-04-28T04:25:12.675Z,9.16
2019-04-28T04:26:12.062Z,9.16
2019-04-28T04:27:12.200Z,9.19
2019-04-28T04:28:12.446Z,9.16
2019-04-28T04:29:12.502Z,9.18
2019-04-28T04:30:12.732Z,9.19
2019-04-28T04:31:12.793Z,9.16
2019-04-28T04:32:22.950Z,9.18
2019-04-28T04:33:13.108Z,9.18
2019-04-28T04:34:13.312Z,9.11
2019-04-28T04:35:13.506Z,9.19
2019-04-28T04:36:13.705Z,9.21
2019-04-28T04:37:13.921Z,9.14
2019-04-28T04:38:14.117Z,9.23
2019-04-28T04:39:20.575Z,9.18
2019-04-28T04:40:16.097Z,9.14
2019-04-28T04:41:15.823Z,9.16
2019-04-28T04:42:20.258Z,9.31
2019-04-28T04:43:16.367Z,9.19
2019-04-28T04:44:17.541Z,9.28
2019-04-28T04:45:16.231Z,9.23
2019-04-28T04:46:16.246Z,9.26
2019-04-28T04:47:17.339Z,9.26
2019-04-28T04:48:17.779Z,9.23
2019-04-28T04:49:21.219Z,9.14
2019-04-28T04:50:20.854Z,9.13
2019-04-28T04:51:17.298Z,9.10
2019-04-28T04:52:20.155Z,9.19
2019-04-28T04:53:16.427Z,9.16
2019-04-28T04:54:16.608Z,9.18
2019-04-28T04:55:16.856Z,9.19
2019-04-28T04:56:16.918Z,9.18
2019-04-28T04:57:17.132Z,8.99
2019-04-28T04:58:17.329Z,9.11
2019-04-28T04:59:17.552Z,9.18
2019-04-28T05:00:17.667Z,9.14
2019-04-28T05:01:17.807Z,9.18
2019-04-28T05:02:26.572Z,9.21
2019-04-28T05:03:21.015Z,9.25
2019-04-28T05:04:19.687Z,9.31
2019-04-28T05:05:19.992Z,9.34
2019-04-28T05:06:19.936Z,9.39
2019-04-28T05:07:19.665Z,9.48
2019-04-28T05:08:20.324Z,9.46
2019-04-28T05:09:19.621Z,9.47
2019-04-28T05:10:20.384Z,9.40
2019-04-28T05:11:20.041Z,9.44
2019-04-28T05:12:19.871Z,9.50
2019-04-28T05:13:20.140Z,9.62
2019-04-28T05:14:20.105Z,9.64
2019-04-28T05:15:20.432Z,9.59
2019-04-28T05:16:20.473Z,9.74
2019-04-28T05:17:20.658Z,9.79
2019-04-28T05:18:20.866Z,9.80
2019-04-28T05:19:21.106Z,9.97
2019-04-28T05:20:21.190Z,10.04
2019-04-28T05:21:21.577Z,10.12
2019-04-28T05:22:21.519Z,10.20
2019-04-28T05:23:21.739Z,10.22
2019-04-28T05:24:21.844Z,10.19
2019-04-28T05:25:24.521Z,10.33
2019-04-28T05:26:22.197Z,10.30
2019-04-28T05:27:25.644Z,10.33
2019-04-28T05:28:22.508Z,10.35
2019-04-28T05:29:26.860Z,10.40
2019-04-28T05:30:24.875Z,10.46
2019-04-28T05:31:24.422Z,10.41
2019-04-28T05:32:23.239Z,10.42
2019-04-28T05:33:30.246Z,10.41
2019-04-28T05:34:24.267Z,10.41
2019-04-28T05:35:25.064Z,10.42
2019-04-28T05:36:23.899Z,10.63
2019-04-28T05:37:24.145Z,10.60
2019-04-28T05:38:24.272Z,10.67
2019-04-28T05:39:24.348Z,10.78
2019-04-28T05:40:24.554Z,10.71
2019-04-28T05:41:24.747Z,10.79
2019-04-28T05:42:24.928Z,10.75
2019-04-28T05:43:25.058Z,10.79
2019-04-28T05:44:29.911Z,10.82
2019-04-28T05:45:27.858Z,10.86
2019-04-28T05:46:27.367Z,10.74
2019-04-28T05:47:26.263Z,10.89
2019-04-28T05:48:27.574Z,10.79
2019-04-28T05:49:27.390Z,10.92
2019-04-28T05:50:29.659Z,10.90
2019-04-28T05:51:29.903Z,10.94
2019-04-28T05:52:30.329Z,10.84
2019-04-28T05:53:26.761Z,10.96
2019-04-28T05:54:26.982Z,11.02
2019-04-28T05:55:27.179Z,10.97
2019-04-28T05:56:27.392Z,10.86
2019-04-28T05:57:27.591Z,10.96
2019-04-28T05:58:30.048Z,10.96
2019-04-28T05:59:29.969Z,11.11
2019-04-28T06:00:29.723Z,11.17
2019-04-28T06:01:31.939Z,11.15
2019-04-28T06:02:31.026Z,11.25
2019-04-28T06:03:30.209Z,11.26
2019-04-28T06:04:32.814Z,11.22
2019-04-28T06:05:31.935Z,10.97
2019-04-28T06:06:30.795Z,11.02
2019-04-28T06:07:31.702Z,11.22
2019-04-28T06:08:30.490Z,11.14
2019-04-28T06:09:29.665Z,11.17
2019-04-28T06:10:29.938Z,11.29
2019-04-28T06:11:30.664Z,11.37
2019-04-28T06:12:31.831Z,11.19
2019-04-28T06:13:30.356Z,11.18
2019-04-28T06:14:30.488Z,11.35
2019-04-28T06:15:30.735Z,11.35
2019-04-28T06:16:30.810Z,11.30
2019-04-28T06:17:31.039Z,11.41
2019-04-28T06:18:31.251Z,11.41
2019-04-28T06:19:31.478Z,11.48
2019-04-28T06:20:31.701Z,11.43
2019-04-28T06:21:31.891Z,11.41
2019-04-28T06:22:32.119Z,11.52
2019-04-28T06:23:32.182Z,11.51
2019-04-28T06:24:32.606Z,11.50
2019-04-28T06:25:32.551Z,11.52
2019-04-28T06:26:32.773Z,11.65
2019-04-28T06:27:32.937Z,11.88
2019-04-28T06:28:33.090Z,11.88
2019-04-28T06:29:33.317Z,11.86
2019-04-28T06:30:33.409Z,11.87
2019-04-28T06:31:35.249Z,11.90
2019-04-28T06:32:35.652Z,12.03
2019-04-28T06:33:36.316Z,12.10
2019-04-28T06:34:36.495Z,12.20
2019-04-28T06:35:35.501Z,12.28
2019-04-28T06:36:35.612Z,12.46
2019-04-28T06:37:35.159Z,12.60
2019-04-28T06:38:38.259Z,12.65
2019-04-28T06:39:34.790Z,13.00
2019-04-28T06:40:34.924Z,12.87
2019-04-28T06:41:35.159Z,12.87
2019-04-28T06:42:35.171Z,12.87
2019-04-28T06:43:35.443Z,12.67
2019-04-28T06:44:35.517Z,12.60
2019-04-28T06:45:35.631Z,12.60
2019-04-28T06:46:35.778Z,12.62
2019-04-28T06:47:35.877Z,12.60
2019-04-28T06:48:35.988Z,12.60
2019-04-28T06:49:36.108Z,12.47
2019-04-28T06:50:36.179Z,12.43
2019-04-28T06:51:36.388Z,12.35
2019-04-28T06:52:36.620Z,12.18
2019-04-28T06:53:36.766Z,12.35
2019-04-28T06:54:36.820Z,12.61
2019-04-28T06:55:37.035Z,12.58
2019-04-28T06:56:37.271Z,12.68
2019-04-28T06:57:37.391Z,12.64
2019-04-28T06:58:37.454Z,12.50
2019-04-28T06:59:38.048Z,12.29
2019-04-28T07:00:38.047Z,12.27
2019-04-28T07:01:38.079Z,12.24
2019-04-28T07:02:38.139Z,12.40
2019-04-28T07:03:38.405Z,12.37
2019-04-28T07:04:38.448Z,12.35
2019-04-28T07:05:38.747Z,12.31
2019-04-28T07:06:38.789Z,12.21
2019-04-28T07:07:38.920Z,12.15
2019-04-28T07:08:39.395Z,12.09
2019-04-28T07:09:39.183Z,12.09
2019-04-28T07:10:39.391Z,12.07
2019-04-28T07:11:39.444Z,12.13
2019-04-28T07:12:39.688Z,12.12
2019-04-28T07:13:39.862Z,12.02
2019-04-28T07:14:40.078Z,12.02
2019-04-28T07:15:40.360Z,11.97
2019-04-28T07:16:40.418Z,11.97
2019-04-28T07:17:40.627Z,11.87
2019-04-28T07:18:40.919Z,11.88
2019-04-28T07:19:41.041Z,11.86
2019-04-28T07:20:41.124Z,11.84
2019-04-28T07:21:41.322Z,11.77
2019-04-28T07:22:41.782Z,11.88
2019-04-28T07:23:41.737Z,11.88
2019-04-28T07:24:44.777Z,11.88
2019-04-28T07:25:42.362Z,11.95
2019-04-28T07:26:42.266Z,12.00
2019-04-28T07:27:43.137Z,11.97
2019-04-28T07:28:43.411Z,12.06
2019-04-28T07:29:43.476Z,12.06
2019-04-28T07:30:43.178Z,12.07
2019-04-28T07:31:43.325Z,12.02
2019-04-28T07:32:43.387Z,12.03
2019-04-28T07:33:43.769Z,12.09
2019-04-28T07:34:43.886Z,12.06
2019-04-28T07:35:43.868Z,12.13
2019-04-28T07:36:43.923Z,12.12
2019-04-28T07:37:44.127Z,12.18
2019-04-28T07:38:44.337Z,12.29
2019-04-28T07:39:44.544Z,12.42
2019-04-28T07:40:44.794Z,12.45
2019-04-28T07:41:44.932Z,12.46
2019-04-28T07:42:45.172Z,12.46
2019-04-28T07:43:45.259Z,12.47
2019-04-28T07:44:45.356Z,12.47
2019-04-28T07:45:45.589Z,12.46
2019-04-28T07:46:45.669Z,12.73
2019-04-28T07:47:45.878Z,12.85
2019-04-28T07:48:46.125Z,13.20
2019-04-28T07:49:46.193Z,13.89
2019-04-28T07:50:46.410Z,14.44
2019-04-28T07:51:46.891Z,14.48
2019-04-28T07:52:46.943Z,14.45
2019-04-28T07:53:46.807Z,14.32
2019-04-28T07:54:47.078Z,14.48
2019-04-28T07:55:47.355Z,14.44
2019-04-28T07:56:47.333Z,14.28
2019-04-28T07:57:47.693Z,14.29
2019-04-28T07:58:48.587Z,14.20
2019-04-28T07:59:47.959Z,14.37
2019-04-28T08:00:48.910Z,14.30
2019-04-28T08:01:48.152Z,14.36
2019-04-28T08:02:48.348Z,14.45
2019-04-28T08:03:50.092Z,14.35
2019-04-28T08:04:48.757Z,14.37
2019-04-28T08:05:48.829Z,14.23
2019-04-28T08:06:49.033Z,14.22
2019-04-28T08:07:49.240Z,14.04
2019-04-28T08:08:49.455Z,13.89
2019-04-28T08:09:49.710Z,14.12
2019-04-28T08:10:49.870Z,14.45
2019-04-28T08:11:50.139Z,15.19
2019-04-28T08:12:50.285Z,15.21
2019-04-28T08:13:50.448Z,15.49
2019-04-28T08:14:50.692Z,15.79
2019-04-28T08:15:50.754Z,16.97
2019-04-28T08:16:50.962Z,17.52
2019-04-28T08:17:51.145Z,17.78
2019-04-28T08:18:55.245Z,17.27
2019-04-28T08:19:51.816Z,17.08
2019-04-28T08:20:52.341Z,16.86
2019-04-28T08:21:51.914Z,16.56
2019-04-28T08:22:52.143Z,16.47
2019-04-28T08:23:52.407Z,16.13
2019-04-28T08:24:52.364Z,15.98
2019-04-28T08:25:52.489Z,15.80
2019-04-28T08:26:52.564Z,15.75
2019-04-28T08:27:52.881Z,15.59
2019-04-28T08:28:52.819Z,15.52
2019-04-28T08:29:58.600Z,15.44
2019-04-28T08:30:54.142Z,15.44
2019-04-28T08:31:53.462Z,15.33
2019-04-28T08:32:54.345Z,15.33
2019-04-28T08:34:02.152Z,15.18
2019-04-28T08:34:55.744Z,15.31
2019-04-28T08:35:54.323Z,15.18
2019-04-28T08:36:54.382Z,15.25
2019-04-28T08:37:55.356Z,15.36
2019-04-28T08:38:55.026Z,15.36
2019-04-28T08:39:54.873Z,15.33
2019-04-28T08:40:55.027Z,15.54
2019-04-28T08:41:55.043Z,15.58
2019-04-28T08:42:55.272Z,16.43
2019-04-28T08:43:55.481Z,16.23
2019-04-28T08:44:55.668Z,15.91
2019-04-28T08:45:55.960Z,15.77
2019-04-28T08:46:56.156Z,15.57
2019-04-28T08:47:58.010Z,15.36
2019-04-28T08:48:56.438Z,15.29
2019-04-28T08:49:56.632Z,15.06
2019-04-28T08:50:56.875Z,14.96
2019-04-28T08:51:56.983Z,15.06
2019-04-28T08:52:57.059Z,15.18
2019-04-28T08:53:57.335Z,15.25
2019-04-28T08:54:57.504Z,15.75
2019-04-28T08:55:57.596Z,16.97
2019-04-28T08:56:57.786Z,17.24
2019-04-28T08:57:58.002Z,16.99
2019-04-28T08:58:58.243Z,16.72
2019-04-28T08:59:58.377Z,17.71
2019-04-28T09:00:58.450Z,18.81
2019-04-28T09:01:58.657Z,19.88
2019-04-28T09:02:58.863Z,19.24
2019-04-28T09:03:59.078Z,19.67
2019-04-28T09:04:59.316Z,19.86
2019-04-28T09:06:01.446Z,20.85
2019-04-28T09:06:59.631Z,20.81
2019-04-28T09:07:59.834Z,19.94
2019-04-28T09:09:00.054Z,19.56
2019-04-28T09:10:00.287Z,19.27
2019-04-28T09:11:00.367Z,20.36
2019-04-28T09:12:00.487Z,21.22
2019-04-28T09:13:00.603Z,22.20
2019-04-28T09:14:00.891Z,22.73
2019-04-28T09:15:00.969Z,23.24
2019-04-28T09:16:01.181Z,23.98
2019-04-28T09:17:01.435Z,24.32
2019-04-28T09:18:01.854Z,24.76
2019-04-28T09:19:01.701Z,23.88
2019-04-28T09:20:01.832Z,22.99
2019-04-28T09:21:02.058Z,22.25
2019-04-28T09:22:02.252Z,21.72
2019-04-28T09:23:02.474Z,21.32
2019-04-28T09:24:02.746Z,20.84
2019-04-28T09:25:02.831Z,20.29
2019-04-28T09:26:03.056Z,19.85
2019-04-28T09:27:03.265Z,19.30
2019-04-28T09:28:03.624Z,19.14
2019-04-28T09:29:03.764Z,18.74
2019-04-28T09:30:03.892Z,18.43
2019-04-28T09:31:04.063Z,18.38
2019-04-28T09:32:04.261Z,18.35
2019-04-28T09:33:04.473Z,18.59
2019-04-28T09:34:04.584Z,19.69
2019-04-28T09:35:04.825Z,19.89
2019-04-28T09:36:04.903Z,19.71
2019-04-28T09:37:05.466Z,19.44
2019-04-28T09:38:05.749Z,18.84
2019-04-28T09:39:05.499Z,18.22
2019-04-28T09:40:05.709Z,17.60
2019-04-28T09:41:05.930Z,17.16
2019-04-28T09:42:06.168Z,16.86
2019-04-28T09:43:06.246Z,16.66
2019-04-28T09:44:06.474Z,16.46
2019-04-28T09:45:06.565Z,16.20
2019-04-28T09:46:06.779Z,16.02
2019-04-28T09:47:06.971Z,15.98
2019-04-28T09:48:07.282Z,15.84
2019-04-28T09:49:07.421Z,15.90
2019-04-28T09:50:07.645Z,15.86
2019-04-28T09:51:07.733Z,15.86
2019-04-28T09:52:08.207Z,15.72
2019-04-28T09:53:08.034Z,15.75
2019-04-28T09:54:08.266Z,15.65
2019-04-28T09:55:08.343Z,15.55
2019-04-28T09:56:08.556Z,15.40
2019-04-28T09:57:08.832Z,15.43
2019-04-28T09:58:08.961Z,15.29
2019-04-28T09:59:09.040Z,15.29
2019-04-28T10:00:09.286Z,15.39
2019-04-28T10:01:09.376Z,15.31
2019-04-28T10:02:09.582Z,15.21
2019-04-28T10:03:09.804Z,15.31
2019-04-28T10:04:09.994Z,15.28
2019-04-28T10:05:10.204Z,15.40
2019-04-28T10:06:10.295Z,15.55
2019-04-28T10:07:10.476Z,15.42
2019-04-28T10:08:10.734Z,15.47
2019-04-28T10:09:10.832Z,15.52
2019-04-28T10:10:11.198Z,15.36
2019-04-28T10:11:11.184Z,15.33
2019-04-28T10:12:11.293Z,15.36
2019-04-28T10:13:11.523Z,15.35
2019-04-28T10:14:11.733Z,15.29
2019-04-28T10:15:11.809Z,15.31
2019-04-28T10:16:12.014Z,15.39
2019-04-28T10:17:12.275Z,15.18
2019-04-28T10:18:12.377Z,15.11
2019-04-28T10:19:12.450Z,15.15
2019-04-28T10:20:12.668Z,15.40
2019-04-28T10:21:12.749Z,15.47
2019-04-28T10:22:12.879Z,15.44
2019-04-28T10:23:13.081Z,15.39
2019-04-28T10:24:13.316Z,15.29
2019-04-28T10:25:13.422Z,15.18
2019-04-28T10:26:13.614Z,15.17
2019-04-28T10:27:13.798Z,15.14
2019-04-28T10:28:14.031Z,15.31
2019-04-28T10:29:14.237Z,15.19
2019-04-28T10:30:14.465Z,15.25
2019-04-28T10:31:14.716Z,15.27
2019-04-28T10:32:14.794Z,15.27
2019-04-28T10:33:14.919Z,15.22
2019-04-28T10:34:15.143Z,15.11
2019-04-28T10:35:15.221Z,15.17
2019-04-28T10:36:15.425Z,15.11
2019-04-28T10:37:15.617Z,15.02
2019-04-28T10:38:15.817Z,14.84
2019-04-28T10:39:16.011Z,14.79
2019-04-28T10:40:16.227Z,14.78
2019-04-28T10:41:16.433Z,14.69
2019-04-28T10:42:16.633Z,14.82
2019-04-28T10:43:16.837Z,14.72
2019-04-28T10:44:17.033Z,14.91
2019-04-28T10:45:17.229Z,14.78
2019-04-28T10:46:17.418Z,14.68
2019-04-28T10:47:17.642Z,14.60
2019-04-28T10:48:17.716Z,14.69
2019-04-28T10:49:17.982Z,14.59
2019-04-28T10:50:18.039Z,14.65
2019-04-28T10:51:18.227Z,14.68
2019-04-28T10:52:18.426Z,14.60
2019-04-28T10:53:18.660Z,14.59
2019-04-28T10:54:18.729Z,14.63
2019-04-28T10:55:18.938Z,14.62
2019-04-28T10:56:19.192Z,14.62
2019-04-28T10:57:19.355Z,14.54
2019-04-28T10:58:19.503Z,14.58
2019-04-28T10:59:19.674Z,14.59
2019-04-28T11:00:20.013Z,14.58
2019-04-28T11:01:19.979Z,14.55
2019-04-28T11:02:20.209Z,14.54
2019-04-28T11:03:20.284Z,14.43
2019-04-28T11:04:20.532Z,14.66
2019-04-28T11:05:20.644Z,14.63
2019-04-28T11:06:20.743Z,14.73
2019-04-28T11:07:20.849Z,14.81
2019-04-28T11:08:20.970Z,14.66
2019-04-28T11:09:30.388Z,14.47
2019-04-28T11:10:21.296Z,14.15
2019-04-28T11:11:21.357Z,14.30
2019-04-28T11:12:21.605Z,14.11
2019-04-28T11:13:21.673Z,14.22
2019-04-28T11:14:21.910Z,14.35
2019-04-28T11:15:21.994Z,14.28
2019-04-28T11:16:22.183Z,14.40
2019-04-28T11:17:22.393Z,13.95
2019-04-28T11:18:22.486Z,13.95
2019-04-28T11:19:22.701Z,14.05
2019-04-28T11:20:25.251Z,14.08
2019-04-28T11:21:23.123Z,13.92
2019-04-28T11:22:23.345Z,13.81
2019-04-28T11:23:23.491Z,13.47
2019-04-28T11:24:23.562Z,13.37
2019-04-28T11:25:23.751Z,13.31
2019-04-28T11:26:23.967Z,13.00
2019-04-28T11:27:24.162Z,13.18
2019-04-28T11:28:24.380Z,13.16
2019-04-28T11:29:24.497Z,13.15
2019-04-28T11:30:24.670Z,13.22
2019-04-28T11:31:24.874Z,13.31
2019-04-28T11:32:25.087Z,13.20
2019-04-28T11:33:25.300Z,13.19
2019-04-28T11:34:25.531Z,13.22
2019-04-28T11:35:25.850Z,13.23
2019-04-28T11:36:25.831Z,13.39
2019-04-28T11:37:26.669Z,13.39
2019-04-28T11:38:26.070Z,13.38
2019-04-28T11:39:26.422Z,13.52
2019-04-28T11:40:26.485Z,13.65
2019-04-28T11:41:26.672Z,13.37
2019-04-28T11:42:26.825Z,13.57
2019-04-28T11:43:26.861Z,13.60
2019-04-28T11:44:27.129Z,13.83
2019-04-28T11:45:27.184Z,13.96
2019-04-28T11:46:27.390Z,13.96
2019-04-28T11:47:27.601Z,13.95
2019-04-28T11:48:27.801Z,13.96
2019-04-28T11:49:27.981Z,14.23
2019-04-28T11:50:28.179Z,14.41
2019-04-28T11:51:28.360Z,14.55
2019-04-28T11:52:28.601Z,14.65
2019-04-28T11:53:28.666Z,14.85
2019-04-28T11:54:28.921Z,14.92
2019-04-28T11:55:29.089Z,14.99
2019-04-28T11:56:40.800Z,15.06
2019-04-28T11:57:29.599Z,15.11
2019-04-28T11:58:29.540Z,15.11
2019-04-28T11:59:29.640Z,15.10
2019-04-28T12:00:29.829Z,15.10
2019-04-28T12:01:30.031Z,15.06
2019-04-28T12:02:30.244Z,15.02
2019-04-28T12:03:30.473Z,14.91
2019-04-28T12:04:30.555Z,14.91
2019-04-28T12:05:34.734Z,14.92
2019-04-28T12:06:30.949Z,14.85
2019-04-28T12:07:32.011Z,14.79
2019-04-28T12:08:31.323Z,14.77
2019-04-28T12:09:31.527Z,14.85
2019-04-28T12:10:31.734Z,14.91
2019-04-28T12:11:31.934Z,14.89
2019-04-28T12:12:32.128Z,14.97
2019-04-28T12:13:32.370Z,14.91
2019-04-28T12:14:32.498Z,15.07
2019-04-28T12:15:32.549Z,15.11
2019-04-28T12:16:32.741Z,15.29
2019-04-28T12:17:35.051Z,15.52
2019-04-28T12:18:33.081Z,15.83
2019-04-28T12:19:33.286Z,16.05
2019-04-28T12:20:33.474Z,16.33
2019-04-28T12:21:33.714Z,16.41
2019-04-28T12:22:33.891Z,16.32
2019-04-28T12:23:34.191Z,16.36
2019-04-28T12:24:34.300Z,16.31
2019-04-28T12:25:34.365Z,16.49
2019-04-28T12:26:34.554Z,16.57
2019-04-28T12:27:34.787Z,16.69
2019-04-28T12:28:34.889Z,16.69
2019-04-28T12:29:34.969Z,16.54
2019-04-28T12:30:35.186Z,16.47
2019-04-28T12:31:35.377Z,16.47
2019-04-28T12:32:35.661Z,16.41
2019-04-28T12:33:36.869Z,16.47
2019-04-28T12:34:36.520Z,16.23
2019-04-28T12:35:47.141Z,16.21
2019-04-28T12:36:36.231Z,15.84
2019-04-28T12:37:36.404Z,15.72
2019-04-28T12:38:36.580Z,15.84
2019-04-28T12:39:36.778Z,15.91
2019-04-28T12:40:36.944Z,15.98
2019-04-28T12:41:37.109Z,15.91
2019-04-28T12:42:37.330Z,15.75
2019-04-28T12:43:37.434Z,15.75
2019-04-28T12:44:37.648Z,15.77
2019-04-28T12:45:37.850Z,15.76
2019-04-28T12:46:38.042Z,15.90
2019-04-28T12:47:38.164Z,15.79
2019-04-28T12:48:38.363Z,15.94
2019-04-28T12:49:38.687Z,15.98
2019-04-28T12:50:38.790Z,16.28
2019-04-28T12:51:38.948Z,16.28
2019-04-28T12:52:39.032Z,16.31
2019-04-28T12:53:39.574Z,16.47
2019-04-28T12:54:39.384Z,16.36
2019-04-28T12:55:39.489Z,16.43
2019-04-28T12:56:43.003Z,16.46
2019-04-28T12:57:45.648Z,16.39
2019-04-28T12:58:43.163Z,16.24
2019-04-28T12:59:40.158Z,16.26
2019-04-28T13:00:40.360Z,16.33
2019-04-28T13:01:40.565Z,16.23
2019-04-28T13:02:40.772Z,16.20